Nearby METAR Reports

 

KPRB - Paso Robles, California, USA
Distance from station: SW 1mi, 1km
Updated: 01/29/2015 3:53am
Mist, Clear
Mist, Clear
 Wind from calm
Wind: Calm
Temperature: 41°F , 5°C
Dew Point: 37°F , 3°C
Humidity: 87%
Barometer: 30.13 inHg , 1020.3 hPa
Summary: Mist
Clouds: Clear
Visibility: 3 miles , 5 km
2015/01/29 11:53 KPRB 291153Z AUTO 00000KT 3SM BR CLR 05/03 A3013 RMK AO2 SLP202 T00500033 10089 20044 58008 TSNO
KSBP - San Luis Obispo, California, USA
Distance from station: S 30mi, 49km
Updated: 01/29/2015 3:56am
Mist, Clear
Mist, Clear
 Wind from E
Wind: E 5 mph , 7 km/h
Temperature: 46°F , 8°C
Wind Chill: 44°F , 7°C
Dew Point: 45°F , 7°C
Humidity: 93%
Barometer: 30.08 inHg , 1018.6 hPa
Summary: Mist
Clouds: Clear
Visibility: 5 miles , 8 km
2015/01/29 11:56 KSBP 291156Z AUTO 10004KT 5SM BR CLR 08/07 A3008 RMK AO2 SLP186 T00830067 10122 20078 58004
 
KSMX - Santa Maria, California, USA
Distance from station: S 54mi, 87km
Updated: 01/29/2015 3:51am
Clear
Clear
 Wind from calm
Wind: Calm
Temperature: 50°F , 10°C
Dew Point: 45°F , 7°C
Humidity: 82%
Barometer: 30.08 inHg , 1018.6 hPa
Clouds: Clear
Visibility: 10 miles , 16 km
2015/01/29 11:51 KSMX 291151Z AUTO 00000KT 10SM CLR 10/07 A3008 RMK AO2 SLP190 T01000072 10144 20089 58005 TSNO $
KNLC - Lemoore Nas/Reev, California, USA
Distance from station: NE 58mi, 94km
Updated: 01/29/2015 4:09am
Overcast
Overcast
 Wind from calm
Wind: Calm
Temperature: 41°F , 5°C
Dew Point: 39°F , 4°C
Humidity: 93%
Barometer: 30.14 inHg , 1020.7 hPa
Clouds: Overcast
Cloud details: Overcast 1100 ft
2015/01/29 12:09 KNLC 291209Z AUTO 00000KT OVC011 05/04 A3014 RMK AO2 T00500044 RVRNO $
 
KVBG - Vandenberg Afb, California, USA
Distance from station: S 65mi, 105km
Updated: 01/29/2015 3:55am
Overcast
Overcast
 Wind from ESE
Wind: ESE 7 mph , 11 km/h
Temperature: 54°F , 12°C
Dew Point: 48°F , 9°C
Humidity: 82%
Barometer: 30.08 inHg , 1018.6 hPa
Clouds: Overcast
Visibility: 10 miles , 16 km
Cloud details: Mostly cloudy 14000 ft
Overcast 20000 ft
2015/01/29 11:55 KVBG 291155Z 11006KT 10SM BKN140 OVC200 12/09 A3008 RMK AO2 SLP176 T01170094 10128 20100 58005
KLPC - Lompoc, California, USA
Distance from station: S 70mi, 113km
Updated: 01/29/2015 3:55am
Clear
Clear
 Wind from E
Wind: E 5 mph , 7 km/h
Temperature: 50°F , 10°C
Wind Chill: 48°F , 9°C
Dew Point: 45°F , 7°C
Humidity: 82%
Barometer: 30.07 inHg , 1018.3 hPa
Clouds: Clear
Visibility: 10 miles , 16 km
2015/01/29 11:55 KLPC 291155Z AUTO 09004KT 10SM CLR 10/07 A3007 RMK AO1 10130 20090 57007
 
KHJO - Hanford, California, USA
Distance from station: NE 72mi, 116km
Updated: 01/29/2015 3:53am
Fog, Overcast
Fog, Overcast
 Wind from calm
Wind: Calm
Temperature: 45°F , 7°C
Dew Point: 45°F , 7°C
Humidity: 100%
Barometer: 30.15 inHg , 1021 hPa
Summary: Fog
Clouds: Overcast
Visibility: less than 1/4 mile , 2 km
Cloud details: Overcast 100 ft
2015/01/29 11:53 KHJO 291153Z AUTO 00000KT M1/4SM FG VV001 07/07 A3015 RMK AO2 SLP210 T00720067 10089 20072 58008